Time;durP1;ratioP1;P1;durP2;ratioP2;P2;SDS_P1;SDS_P2;PMS_P1;PMS_P2;Temp;Humidity;BMP_temperature;BMP_pressure;BME280_temperature;BME280_humidity;BME280_pressure;Samples;Min_cycle;Max_cycle;Signal;HPM_P1;HPM_P2
2024/01/10 00:01:34;;;;;;;31.45;24.33;;;-3.70;99.90;;;;;;5063275;28;20181;-87
2024/01/10 00:04:00;;;;;;;31.73;26.58;;;-3.70;99.90;;;;;;5059477;28;20448;-88
2024/01/10 00:06:26;;;;;;;31.20;25.95;;;-3.80;99.90;;;;;;5081488;28;20102;-88
2024/01/10 00:08:51;;;;;;;32.00;25.23;;;-3.80;99.90;;;;;;5064478;28;20115;-88
2024/01/10 00:11:21;;;;;;;31.05;26.25;;;-3.90;99.90;;;;;;5061198;28;20040;-88
2024/01/10 00:13:46;;;;;;;29.05;24.20;;;-3.90;99.90;;;;;;5081179;28;20047;-88
2024/01/10 00:16:15;;;;;;;32.22;27.23;;;-3.90;99.90;;;;;;5081189;28;20093;-88
2024/01/10 00:18:41;;;;;;;28.20;25.23;;;-4.00;99.90;;;;;;5060050;28;20479;-88
2024/01/10 00:21:14;;;;;;;31.63;27.25;;;-4.10;99.90;;;;;;5057739;28;20133;-88
2024/01/10 00:23:46;;;;;;;32.23;27.13;;;-4.00;99.90;;;;;;5056399;28;20048;-88
2024/01/10 00:26:17;;;;;;;34.75;29.63;;;-4.10;99.90;;;;;;5083657;28;20036;-88
2024/01/10 00:28:45;;;;;;;31.42;24.48;;;-4.10;99.90;;;;;;5058279;28;20036;-88
2024/01/10 00:31:17;;;;;;;35.00;27.88;;;-4.10;99.90;;;;;;5064636;28;20069;-88
2024/01/10 00:33:43;;;;;;;39.80;30.20;;;-4.00;99.90;;;;;;5064337;28;20101;-89
2024/01/10 00:36:31;;;;;;;36.38;28.67;;;-4.00;99.90;;;;;;5078561;28;20048;-89
2024/01/10 00:42:41;;;;;;;36.40;27.23;;;-4.10;99.90;;;;;;5068325;28;20051;-89
2024/01/10 00:50:24;;;;;;;31.75;26.27;;;-4.20;99.90;;;;;;4992806;28;20113;-89
2024/01/10 00:53:54;;;;;;;29.30;25.55;;;-4.30;99.90;;;;;;5003848;28;20049;-89
2024/01/10 01:12:08;;;;;;;33.10;27.70;;;-4.60;99.90;;;;;;4921334;29;20062;-90
2024/01/10 01:15:14;;;;;;;;;;;;;;;;;;;;;
2024/01/10 01:18:13;;;;;;;30.75;26.80;;;-4.70;99.90;;;;;;4971317;28;20051;-90
2024/01/10 01:20:48;;;;;;;30.83;25.10;;;-4.70;99.90;;;;;;4997567;28;20053;-91
2024/01/10 01:23:22;;;;;;;34.67;26.77;;;-4.70;99.90;;;;;;5013056;28;20050;-90
2024/01/10 01:26:36;;;;;;;24.57;21.97;;;-4.60;99.90;;;;;;5017196;28;20128;-90
2024/01/10 01:29:08;;;;;;;32.05;28.63;;;-4.60;99.90;;;;;;5007343;28;20060;-90
2024/01/10 01:31:52;;;;;;;33.38;25.50;;;-4.60;99.90;;;;;;4993608;28;20564;-90
2024/01/10 01:34:21;;;;;;;27.77;24.77;;;-4.60;99.90;;;;;;5007941;28;20042;-90
2024/01/10 01:36:58;;;;;;;32.50;27.80;;;-4.60;99.90;;;;;;4996669;28;20080;-90
2024/01/10 01:39:23;;;;;;;31.95;26.35;;;-4.60;99.90;;;;;;5020128;28;20060;-90
2024/01/10 01:42:11;;;;;;;;;;;;;;;;;;;;;
2024/01/10 01:44:42;;;;;;;32.88;26.45;;;-4.50;99.90;;;;;;4997321;28;20502;-90
2024/01/10 01:47:21;;;;;;;;;;;;;;;;;;;;;
2024/01/10 01:49:50;;;;;;;30.35;24.50;;;-4.40;99.90;;;;;;5016524;28;20026;-91
2024/01/10 01:52:28;;;;;;;28.35;24.42;;;-4.30;99.90;;;;;;5010502;28;20044;-91
2024/01/10 01:55:24;;;;;;;28.80;25.40;;;-4.20;99.90;;;;;;5058198;28;20051;-91
2024/01/10 01:57:59;;;;;;;23.08;20.65;;;-4.20;99.90;;;;;;5070365;28;20040;-90
2024/01/10 02:03:38;;;;;;;33.70;28.08;;;-4.10;99.90;;;;;;5043157;28;20055;-90
2024/01/10 02:06:57;;;;;;;29.83;26.20;;;-4.10;99.90;;;;;;5032296;28;20052;-90
2024/01/10 02:13:20;;;;;;;23.98;21.92;;;-4.10;99.90;;;;;;5019974;28;20044;-90
2024/01/10 02:16:28;;;;;;;31.02;26.77;;;-4.10;99.90;;;;;;5035254;28;20041;-90
2024/01/10 02:19:53;;;;;;;;;;;;;;;;;;;;;
2024/01/10 02:23:19;;;;;;;29.52;24.75;;;-4.20;99.90;;;;;;5042800;28;20044;-89
2024/01/10 02:26:42;;;;;;;24.65;22.10;;;-4.30;99.90;;;;;;5049936;28;20424;-89
2024/01/10 02:29:53;;;;;;;;;;;;;;;;;;;;;
2024/01/10 02:37:19;;;;;;;27.13;23.88;;;-4.30;99.90;;;;;;5021778;28;20088;-89
2024/01/10 02:41:15;;;;;;;22.53;20.43;;;-4.30;99.90;;;;;;4948737;28;20043;-89
2024/01/10 02:45:06;;;;;;;23.23;20.83;;;-4.30;99.90;;;;;;4922017;29;20071;-88
2024/01/10 02:56:10;;;;;;;23.90;21.40;;;-4.20;99.90;;;;;;4940679;29;20140;-88
2024/01/10 03:00:05;;;;;;;;;;;;;;;;;;;;;
2024/01/10 03:07:54;;;;;;;26.63;22.88;;;-4.20;99.90;;;;;;4882759;29;20152;-87
2024/01/10 03:10:54;;;;;;;33.05;25.80;;;-4.20;99.90;;;;;;4867354;29;20144;-87
2024/01/10 03:14:04;;;;;;;26.60;22.63;;;-4.20;99.90;;;;;;4915506;28;20047;-87
2024/01/10 03:16:45;;;;;;;21.20;18.50;;;-4.30;99.90;;;;;;4944546;28;20097;-86
2024/01/10 03:19:21;;;;;;;25.85;19.65;;;-4.30;99.90;;;;;;4958211;28;20054;-86
2024/01/10 03:22:38;;;;;;;27.25;24.38;;;-4.20;99.90;;;;;;4969973;28;20614;-86
2024/01/10 03:25:30;;;;;;;27.65;22.23;;;-4.20;99.90;;;;;;4936195;28;20063;-85
2024/01/10 03:28:26;;;;;;;23.17;20.95;;;-4.10;99.90;;;;;;4951005;28;20045;-85
2024/01/10 03:31:11;;;;;;;26.05;19.70;;;-4.10;99.90;;;;;;4938003;28;20043;-86
2024/01/10 03:33:38;;;;;;;23.08;20.27;;;-4.10;99.90;;;;;;4934630;28;20050;-85
2024/01/10 03:36:10;;;;;;;25.48;21.38;;;-4.00;99.90;;;;;;4947129;28;20051;-85
2024/01/10 03:38:38;;;;;;;22.40;18.98;;;-4.00;99.90;;;;;;4991337;28;20045;-85
2024/01/10 03:41:06;;;;;;;27.95;22.20;;;-4.10;99.90;;;;;;5020389;28;20065;-85
2024/01/10 03:43:40;;;;;;;24.83;21.45;;;-4.10;99.90;;;;;;4970761;28;20161;-85
2024/01/10 03:46:08;;;;;;;26.20;23.17;;;-4.10;99.90;;;;;;5029451;28;20448;-84
2024/01/10 03:48:40;;;;;;;25.45;21.27;;;-4.10;99.90;;;;;;4996602;28;20053;-84
2024/01/10 03:51:06;;;;;;;24.73;20.85;;;-4.10;99.90;;;;;;4997797;28;20133;-84
2024/01/10 03:53:31;;;;;;;26.35;21.42;;;-4.20;99.90;;;;;;5014969;28;20195;-84
2024/01/10 03:55:57;;;;;;;26.83;22.58;;;-4.20;99.90;;;;;;5049317;28;20045;-84
2024/01/10 03:58:23;;;;;;;19.83;17.80;;;-4.30;99.90;;;;;;5009043;28;20068;-84
2024/01/10 04:00:49;;;;;;;24.73;21.95;;;-4.30;99.90;;;;;;5027413;28;20067;-83
2024/01/10 04:03:16;;;;;;;28.83;23.05;;;-4.20;99.90;;;;;;5052814;28;20044;-84
2024/01/10 04:05:42;;;;;;;21.67;19.55;;;-4.20;99.90;;;;;;5056432;28;20051;-84
2024/01/10 04:08:07;;;;;;;22.13;19.95;;;-4.20;99.90;;;;;;5042682;28;20036;-84
2024/01/10 04:10:33;;;;;;;26.63;22.02;;;-4.20;99.90;;;;;;5081373;28;20159;-83
2024/01/10 04:12:59;;;;;;;27.83;22.27;;;-4.10;99.90;;;;;;5103338;28;20032;-83
2024/01/10 04:15:24;;;;;;;21.42;19.13;;;-4.00;99.90;;;;;;5052107;28;20580;-83
2024/01/10 04:17:50;;;;;;;19.13;17.15;;;-4.00;99.90;;;;;;5068528;28;20036;-83
2024/01/10 04:20:16;;;;;;;19.63;17.73;;;-4.00;99.90;;;;;;5033657;28;20045;-83
2024/01/10 04:22:42;;;;;;;27.48;22.92;;;-4.00;99.90;;;;;;5063560;28;20108;-83
2024/01/10 04:25:08;;;;;;;25.52;22.50;;;-4.00;99.90;;;;;;5036725;28;20048;-83
2024/01/10 04:27:33;;;;;;;22.40;20.02;;;-3.90;99.90;;;;;;5054874;28;20040;-83
2024/01/10 04:29:59;;;;;;;20.55;18.55;;;-3.90;99.90;;;;;;5028031;28;20086;-83
2024/01/10 04:32:25;;;;;;;22.27;19.88;;;-3.90;99.90;;;;;;5092731;28;20067;-83
2024/01/10 04:34:51;;;;;;;18.88;16.98;;;-3.90;99.90;;;;;;5049221;28;20025;-83
2024/01/10 04:37:18;;;;;;;26.98;21.30;;;-3.90;99.90;;;;;;5059026;28;20519;-83
2024/01/10 04:39:43;;;;;;;25.63;19.73;;;-3.90;99.90;;;;;;5049696;28;20051;-83
2024/01/10 04:42:10;;;;;;;22.60;20.48;;;-3.90;99.90;;;;;;5076826;28;20043;-82
2024/01/10 04:44:37;;;;;;;25.65;22.67;;;-3.90;99.90;;;;;;5080580;28;20069;-83
2024/01/10 04:47:03;;;;;;;27.45;23.02;;;-3.90;99.90;;;;;;5052048;28;20044;-82
2024/01/10 04:49:29;;;;;;;18.80;17.10;;;-3.90;99.90;;;;;;5052776;28;20063;-82
2024/01/10 04:51:55;;;;;;;22.98;20.67;;;-4.00;99.90;;;;;;5095693;28;20032;-82
2024/01/10 04:54:20;;;;;;;26.55;22.73;;;-3.90;99.90;;;;;;5081175;28;20040;-82
2024/01/10 04:56:46;;;;;;;21.17;18.92;;;-3.90;99.90;;;;;;5067258;28;20165;-82
2024/01/10 04:59:12;;;;;;;29.83;23.90;;;-3.90;99.90;;;;;;5063996;28;20128;-82
2024/01/10 05:01:38;;;;;;;22.15;20.00;;;-4.00;99.90;;;;;;5054482;28;20036;-82
2024/01/10 05:04:04;;;;;;;33.38;22.55;;;-4.00;99.90;;;;;;5103850;28;20118;-82
2024/01/10 05:06:29;;;;;;;30.67;24.10;;;-4.00;99.90;;;;;;5065050;28;20534;-82
2024/01/10 05:08:57;;;;;;;26.52;22.20;;;-4.00;99.90;;;;;;5069478;28;20035;-82
2024/01/10 05:11:24;;;;;;;25.77;22.17;;;-4.00;99.90;;;;;;5070554;28;20043;-82
2024/01/10 05:13:50;;;;;;;25.05;18.70;;;-4.00;99.90;;;;;;5075046;28;20393;-81
2024/01/10 05:16:17;;;;;;;27.13;22.08;;;-4.00;99.90;;;;;;5069790;28;20771;-82
2024/01/10 05:18:43;;;;;;;27.10;23.63;;;-4.00;99.90;;;;;;5061281;28;20070;-81
2024/01/10 05:21:09;;;;;;;27.88;24.40;;;-4.10;99.90;;;;;;5082054;28;20048;-82
2024/01/10 05:23:35;;;;;;;26.00;22.40;;;-4.10;99.90;;;;;;5079546;28;20487;-82
2024/01/10 05:26:01;;;;;;;20.08;18.20;;;-4.10;99.90;;;;;;5062485;28;20492;-81
2024/01/10 05:28:26;;;;;;;29.58;24.50;;;-4.10;99.90;;;;;;5061320;28;20031;-81
2024/01/10 05:30:53;;;;;;;23.23;20.75;;;-4.10;99.90;;;;;;5099437;28;20036;-81
2024/01/10 05:33:19;;;;;;;27.15;23.77;;;-4.10;99.90;;;;;;5077453;28;20122;-81
2024/01/10 05:35:45;;;;;;;24.23;21.10;;;-4.10;99.90;;;;;;5085917;28;20084;-81
2024/01/10 05:38:11;;;;;;;26.20;23.17;;;-4.10;99.90;;;;;;5066658;28;20133;-81
2024/01/10 05:40:37;;;;;;;28.67;23.90;;;-4.10;99.90;;;;;;5041660;28;20041;-81
2024/01/10 05:43:02;;;;;;;26.05;22.70;;;-4.10;99.90;;;;;;5048799;28;20498;-81
2024/01/10 05:45:28;;;;;;;24.98;21.50;;;-4.20;99.90;;;;;;5060738;28;20033;-81
2024/01/10 05:47:54;;;;;;;32.10;25.88;;;-4.20;99.90;;;;;;5056527;28;20028;-81
2024/01/10 05:50:20;;;;;;;20.63;18.73;;;-4.10;99.90;;;;;;5056614;28;20044;-81
2024/01/10 05:52:47;;;;;;;27.83;23.80;;;-4.10;99.90;;;;;;5044799;28;20044;-81
2024/01/10 05:55:13;;;;;;;28.10;23.73;;;-4.10;99.90;;;;;;5061429;28;20096;-80
2024/01/10 05:57:39;;;;;;;27.48;24.67;;;-4.10;99.90;;;;;;5059610;28;20037;-80
2024/01/10 06:00:12;;;;;;;27.10;23.17;;;-4.20;99.90;;;;;;5035431;28;20055;-80
2024/01/10 06:02:42;;;;;;;31.83;26.23;;;-4.20;99.90;;;;;;5046410;28;20054;-80
2024/01/10 06:05:09;;;;;;;26.75;21.85;;;-4.20;99.90;;;;;;5044373;28;20075;-80
2024/01/10 06:07:38;;;;;;;23.55;21.20;;;-4.20;99.90;;;;;;5037895;28;20048;-80
2024/01/10 06:10:05;;;;;;;30.52;22.98;;;-4.20;99.90;;;;;;5062105;28;20040;-80
2024/01/10 06:12:31;;;;;;;30.75;27.00;;;-4.20;99.90;;;;;;5033388;28;21432;-80
2024/01/10 06:14:57;;;;;;;30.48;27.20;;;-4.10;99.90;;;;;;5038972;28;20477;-80
2024/01/10 06:17:23;;;;;;;31.65;25.77;;;-4.20;99.90;;;;;;5050353;28;20259;-80
2024/01/10 06:19:49;;;;;;;19.83;17.73;;;-4.20;99.90;;;;;;5061242;28;20032;-80
2024/01/10 06:22:16;;;;;;;22.23;19.48;;;-4.20;99.90;;;;;;5055961;28;20040;-80
2024/01/10 06:24:42;;;;;;;34.25;25.13;;;-4.20;99.90;;;;;;5053293;28;20122;-80
2024/01/10 06:27:08;;;;;;;27.73;24.20;;;-4.20;99.90;;;;;;5038045;28;20066;-80
2024/01/10 06:29:33;;;;;;;32.40;26.90;;;-4.20;99.90;;;;;;5031972;28;20033;-80
2024/01/10 06:32:01;;;;;;;28.77;25.60;;;-4.20;99.90;;;;;;5067821;28;20550;-80
2024/01/10 06:34:27;;;;;;;25.80;23.25;;;-4.30;99.90;;;;;;5056393;28;20370;-80
2024/01/10 06:36:53;;;;;;;25.55;22.00;;;-4.30;99.90;;;;;;5077697;28;20060;-80
2024/01/10 06:39:19;;;;;;;35.47;28.38;;;-4.30;99.90;;;;;;5071017;28;20036;-79
2024/01/10 06:41:47;;;;;;;33.30;28.13;;;-4.30;99.90;;;;;;5084426;28;20071;-79
2024/01/10 06:44:12;;;;;;;31.85;26.73;;;-4.40;99.90;;;;;;5063369;28;20126;-79
2024/01/10 06:46:38;;;;;;;32.58;27.55;;;-4.40;99.90;;;;;;5058297;28;20181;-79
2024/01/10 06:49:04;;;;;;;33.00;27.33;;;-4.40;99.90;;;;;;5055004;28;20053;-79
2024/01/10 06:51:29;;;;;;;28.65;25.23;;;-4.40;99.90;;;;;;5059462;28;20052;-79
2024/01/10 06:54:02;;;;;;;29.73;24.60;;;-4.50;99.90;;;;;;5072340;28;20035;-79
2024/01/10 06:56:28;;;;;;;32.72;27.50;;;-4.50;99.90;;;;;;5098103;28;20044;-79
2024/01/10 06:58:54;;;;;;;33.25;25.75;;;-4.50;99.90;;;;;;5070694;28;20059;-79
2024/01/10 07:01:21;;;;;;;31.33;25.58;;;-4.40;99.90;;;;;;5072494;28;20461;-79
2024/01/10 07:03:47;;;;;;;26.20;23.40;;;-4.50;99.90;;;;;;5080942;28;20118;-79
2024/01/10 07:06:16;;;;;;;31.42;26.17;;;-4.40;99.90;;;;;;5081144;28;20192;-79
2024/01/10 07:08:42;;;;;;;29.83;26.63;;;-4.40;99.90;;;;;;5057277;28;20109;-79
2024/01/10 07:11:08;;;;;;;29.88;23.30;;;-4.50;99.90;;;;;;5056175;28;20054;-78
2024/01/10 07:13:34;;;;;;;34.25;27.88;;;-4.50;99.90;;;;;;5075147;28;20094;-78
2024/01/10 07:16:01;;;;;;;38.88;27.08;;;-4.50;99.90;;;;;;5074609;28;20110;-78
2024/01/10 07:18:28;;;;;;;24.00;21.50;;;-4.40;99.90;;;;;;5060301;28;20047;-78
2024/01/10 07:20:54;;;;;;;24.42;21.48;;;-4.40;99.90;;;;;;5077448;28;20100;-78
2024/01/10 07:23:20;;;;;;;34.90;26.45;;;-4.20;99.90;;;;;;5059613;28;20039;-78
2024/01/10 07:25:45;;;;;;;28.88;24.60;;;-4.20;99.90;;;;;;5062917;28;20044;-78
2024/01/10 07:28:11;;;;;;;20.75;18.83;;;-4.30;99.90;;;;;;5078223;28;20047;-78
2024/01/10 07:30:36;;;;;;;23.25;20.90;;;-4.20;99.90;;;;;;5069358;28;20381;-78
2024/01/10 07:33:02;;;;;;;30.88;24.92;;;-4.20;99.90;;;;;;5055215;28;20039;-78
2024/01/10 07:35:29;;;;;;;30.15;24.73;;;-4.20;99.90;;;;;;5073158;28;20052;-78
2024/01/10 07:37:54;;;;;;;23.58;21.00;;;-4.30;99.90;;;;;;5073316;28;20035;-78
2024/01/10 07:40:20;;;;;;;18.90;17.23;;;-4.30;99.90;;;;;;5072826;28;20054;-78
2024/01/10 07:42:46;;;;;;;27.02;23.92;;;-4.30;99.90;;;;;;5071083;28;20408;-78
2024/01/10 07:45:12;;;;;;;22.42;20.00;;;-4.30;99.90;;;;;;5054789;28;20044;-77
2024/01/10 07:47:38;;;;;;;27.98;22.25;;;-4.30;99.90;;;;;;5077878;28;20390;-78
2024/01/10 07:50:08;;;;;;;29.63;23.88;;;-4.30;99.90;;;;;;5053192;28;20086;-78
2024/01/10 07:52:34;;;;;;;28.45;25.00;;;-4.30;99.90;;;;;;5076346;28;20031;-77
2024/01/10 07:55:00;;;;;;;25.88;22.65;;;-4.30;99.90;;;;;;5088285;28;20438;-77
2024/01/10 07:57:29;;;;;;;24.55;20.60;;;-4.20;99.90;;;;;;5058198;28;20403;-78
2024/01/10 07:59:55;;;;;;;31.35;23.58;;;-4.20;99.90;;;;;;5070582;28;20407;-77
2024/01/10 08:02:20;;;;;;;22.55;20.42;;;-4.20;99.90;;;;;;5050126;28;20044;-77
2024/01/10 08:04:46;;;;;;;23.63;19.90;;;-4.10;99.90;;;;;;5057102;28;20050;-77
2024/01/10 08:07:12;;;;;;;21.70;19.27;;;-4.10;99.90;;;;;;5070989;28;20145;-77
2024/01/10 08:09:37;;;;;;;32.35;24.90;;;-4.10;99.90;;;;;;5080176;28;20043;-77
2024/01/10 08:12:04;;;;;;;27.00;21.60;;;-4.00;99.90;;;;;;5075497;28;20075;-77
2024/01/10 08:14:29;;;;;;;30.45;25.92;;;-4.10;99.90;;;;;;5061514;28;20111;-77
2024/01/10 08:16:58;;;;;;;20.50;18.50;;;-4.00;99.90;;;;;;5061021;28;20556;-77
2024/01/10 08:19:25;;;;;;;28.00;22.80;;;-4.00;99.90;;;;;;5096068;28;20051;-77
2024/01/10 08:21:52;;;;;;;20.95;18.65;;;-3.80;99.90;;;;;;5058979;28;20101;-76
2024/01/10 08:24:18;;;;;;;20.42;18.15;;;-3.60;99.90;;;;;;5061962;28;20048;-77
2024/01/10 08:26:44;;;;;;;27.13;20.42;;;-3.50;99.90;;;;;;5094295;28;20052;-77
2024/01/10 08:29:10;;;;;;;23.73;20.10;;;-3.50;99.90;;;;;;5058079;28;20495;-76
2024/01/10 08:31:35;;;;;;;26.98;21.80;;;-3.40;99.90;;;;;;5074459;28;20028;-77
2024/01/10 08:34:01;;;;;;;17.83;16.42;;;-3.30;99.90;;;;;;5072943;28;20607;-76
2024/01/10 08:36:27;;;;;;;29.67;22.70;;;-3.20;99.90;;;;;;5072553;28;20166;-77
2024/01/10 08:38:52;;;;;;;29.23;21.58;;;-3.10;99.90;;;;;;5075677;28;20056;-76
2024/01/10 08:41:19;;;;;;;20.17;18.08;;;-3.10;99.90;;;;;;5059809;28;20385;-77
2024/01/10 08:43:47;;;;;;;20.20;18.02;;;-3.00;99.90;;;;;;5095252;28;20513;-76
2024/01/10 08:46:13;;;;;;;19.33;17.38;;;-3.00;99.90;;;;;;5065640;28;20040;-76
2024/01/10 08:48:39;;;;;;;18.98;17.00;;;-2.90;99.90;;;;;;5060467;28;20369;-77
2024/01/10 08:51:04;;;;;;;29.35;20.83;;;-2.80;99.90;;;;;;5060339;28;20127;-77
2024/01/10 08:53:30;;;;;;;29.83;22.38;;;-2.80;99.90;;;;;;5065547;28;20044;-77
2024/01/10 08:55:56;;;;;;;29.98;20.90;;;-2.70;99.90;;;;;;5069987;28;20043;-77
2024/01/10 08:58:21;;;;;;;32.05;22.35;;;-2.70;99.90;;;;;;5071962;28;20043;-78
2024/01/10 09:00:47;;;;;;;26.25;20.02;;;-2.70;99.90;;;;;;5076963;28;20529;-78
2024/01/10 09:03:13;;;;;;;25.60;19.60;;;-2.60;99.90;;;;;;5058210;28;20484;-78
2024/01/10 09:05:38;;;;;;;20.77;17.10;;;-2.60;99.90;;;;;;5058260;28;20032;-78
2024/01/10 09:08:04;;;;;;;23.30;18.50;;;-2.50;99.90;;;;;;5076463;28;20587;-79
2024/01/10 09:10:30;;;;;;;20.55;18.50;;;-2.50;99.90;;;;;;5093826;28;20034;-79
2024/01/10 09:12:59;;;;;;;17.08;15.05;;;-2.50;99.90;;;;;;5061282;28;20510;-79
2024/01/10 09:15:24;;;;;;;21.13;17.25;;;-2.50;99.90;;;;;;5079649;28;20035;-79
2024/01/10 09:17:52;;;;;;;18.40;16.52;;;-2.40;99.90;;;;;;5071005;28;20044;-79
2024/01/10 09:20:18;;;;;;;17.10;15.32;;;-2.40;99.90;;;;;;5084520;28;20061;-79
2024/01/10 09:22:43;;;;;;;25.30;16.90;;;-2.40;99.90;;;;;;5058564;28;20035;-79
2024/01/10 09:25:12;;;;;;;18.15;16.23;;;-2.30;99.90;;;;;;5082571;28;20062;-79
2024/01/10 09:27:41;;;;;;;23.60;19.48;;;-2.30;99.90;;;;;;5059228;28;20090;-78
2024/01/10 09:30:10;;;;;;;18.35;16.48;;;-2.20;99.90;;;;;;5054587;28;20071;-79
2024/01/10 09:32:36;;;;;;;18.17;15.75;;;-2.20;99.90;;;;;;5092768;28;20036;-78
2024/01/10 09:35:02;;;;;;;25.20;19.05;;;-2.10;99.90;;;;;;5053983;28;20036;-79
2024/01/10 09:37:28;;;;;;;22.38;19.15;;;-2.10;99.90;;;;;;5085575;28;20047;-79
2024/01/10 09:39:53;;;;;;;20.58;16.85;;;-2.10;99.90;;;;;;5054382;28;20100;-79
2024/01/10 09:42:25;;;;;;;24.63;19.33;;;-2.00;99.90;;;;;;5075030;28;20047;-80
2024/01/10 09:44:51;;;;;;;19.02;15.40;;;-2.00;99.90;;;;;;5069163;28;20041;-80
2024/01/10 09:47:19;;;;;;;27.50;20.52;;;-1.90;99.90;;;;;;5072154;28;20821;-81
2024/01/10 09:49:46;;;;;;;16.20;14.57;;;-1.80;99.90;;;;;;5061762;28;20108;-83
2024/01/10 09:52:21;;;;;;;24.23;18.65;;;-1.70;99.90;;;;;;5062144;28;20451;-83
2024/01/10 09:55:02;;;;;;;18.48;16.42;;;-1.70;99.90;;;;;;5078830;28;20076;-85
2024/01/10 09:57:31;;;;;;;17.30;15.50;;;-1.60;99.90;;;;;;5082818;28;20047;-86
2024/01/10 10:00:04;;;;;;;19.13;15.20;;;-1.50;99.90;;;;;;5056247;28;20389;-86
2024/01/10 10:02:35;;;;;;;16.17;14.57;;;-1.50;99.90;;;;;;5062890;28;20451;-88
2024/01/10 10:06:00;;;;;;;20.92;16.95;;;-1.40;99.90;;;;;;5079697;28;20044;-88
2024/01/10 10:08:28;;;;;;;16.85;15.23;;;-1.30;99.90;;;;;;5036800;28;20056;-88
2024/01/10 10:10:54;;;;;;;14.85;13.40;;;-1.20;99.90;;;;;;5091461;28;20476;-89
2024/01/10 10:13:28;;;;;;;19.65;15.30;;;-1.20;99.90;;;;;;5087865;28;20056;-88
2024/01/10 10:38:13;;;;;;;19.58;14.40;;;-0.70;99.90;;;;;;4813953;29;20523;-82
2024/01/10 10:40:38;;;;;;;16.98;13.98;;;-0.60;99.90;;;;;;4832054;29;20056;-81
2024/01/10 10:43:04;;;;;;;14.13;12.73;;;-0.70;99.90;;;;;;4891862;29;20493;-81
2024/01/10 10:45:32;;;;;;;13.85;12.35;;;-0.70;99.90;;;;;;4894773;29;20052;-80
2024/01/10 10:48:00;;;;;;;21.55;15.57;;;-0.60;99.90;;;;;;4899140;29;20102;-81
2024/01/10 10:50:33;;;;;;;14.02;12.52;;;-0.50;99.90;;;;;;4892266;29;20052;-80
2024/01/10 10:53:02;;;;;;;15.27;12.47;;;-0.40;99.90;;;;;;4896095;29;20044;-81
2024/01/10 10:55:29;;;;;;;15.07;13.43;;;-0.40;99.90;;;;;;4896611;28;20307;-80
2024/01/10 10:57:56;;;;;;;16.00;13.48;;;-0.40;99.90;;;;;;4958135;28;20048;-80
2024/01/10 11:00:26;;;;;;;22.08;15.27;;;-0.40;99.90;;;;;;4989381;28;20093;-80
2024/01/10 11:02:54;;;;;;;16.65;12.75;;;-0.30;99.90;;;;;;4965068;28;20078;-80
2024/01/10 11:05:20;;;;;;;16.58;12.88;;;-0.20;99.90;;;;;;4961799;28;20049;-80
2024/01/10 11:07:47;;;;;;;18.08;14.95;;;-0.10;99.90;;;;;;5019733;28;20051;-80
2024/01/10 11:10:17;;;;;;;12.55;10.98;;;0.00;99.90;;;;;;5081737;28;20078;-80
2024/01/10 11:13:00;;;;;;;19.50;13.82;;;0.00;99.90;;;;;;5054542;28;20040;-79
2024/01/10 11:15:54;;;;;;;15.93;13.05;;;0.00;99.90;;;;;;5075772;28;20031;-79
2024/01/10 11:18:51;;;;;;;14.80;12.13;;;0.10;99.90;;;;;;5072855;28;20056;-79
2024/01/10 11:21:51;;;;;;;10.25;9.45;;;0.10;99.90;;;;;;5069024;28;20048;-80
2024/01/10 11:24:18;;;;;;;14.45;11.90;;;0.20;99.90;;;;;;5089197;28;20063;-79
2024/01/10 11:26:45;;;;;;;15.68;12.43;;;0.30;99.90;;;;;;5058444;28;20050;-79
2024/01/10 11:29:12;;;;;;;13.13;11.07;;;0.30;99.90;;;;;;5076625;28;20114;-79
2024/01/10 11:31:39;;;;;;;14.23;11.45;;;0.30;99.90;;;;;;5053345;28;20047;-79
2024/01/10 11:34:05;;;;;;;11.20;10.30;;;0.40;99.90;;;;;;5083999;28;20450;-83
2024/01/10 11:36:31;;;;;;;12.70;10.45;;;0.40;99.90;;;;;;5053563;28;20044;-80
2024/01/10 11:39:04;;;;;;;13.70;11.43;;;0.40;99.90;;;;;;5070822;28;20056;-80
2024/01/10 11:41:31;;;;;;;14.15;11.95;;;0.40;99.90;;;;;;5089704;28;20067;-80
2024/01/10 11:46:41;;;;;;;15.80;11.68;;;0.50;99.90;;;;;;5074642;28;20052;-81
2024/01/10 11:49:11;;;;;;;16.90;12.68;;;0.60;99.90;;;;;;5053485;28;20161;-81
2024/01/10 11:51:37;;;;;;;19.45;13.02;;;0.70;99.90;;;;;;5052032;28;20487;-81
2024/01/10 11:54:03;;;;;;;11.73;9.70;;;0.70;99.90;;;;;;5052451;28;20155;-81
2024/01/10 11:56:43;;;;;;;12.43;9.75;;;0.70;99.90;;;;;;5055533;28;20075;-80
2024/01/10 11:59:15;;;;;;;15.13;11.50;;;0.60;99.90;;;;;;5050165;28;20040;-81
2024/01/10 12:01:42;;;;;;;16.17;11.02;;;0.60;99.90;;;;;;5055257;28;20044;-81
2024/01/10 12:04:11;;;;;;;13.50;9.98;;;0.60;99.90;;;;;;5062565;28;20048;-81
2024/01/10 12:06:37;;;;;;;18.00;11.65;;;0.70;99.90;;;;;;5071812;28;20040;-83
2024/01/10 12:09:09;;;;;;;15.60;11.40;;;0.80;99.90;;;;;;5051517;28;20280;-82
2024/01/10 12:11:35;;;;;;;11.73;10.45;;;0.70;99.90;;;;;;5063314;28;20488;-82
2024/01/10 12:14:05;;;;;;;18.55;12.23;;;0.70;99.90;;;;;;5068262;28;20040;-83
2024/01/10 12:16:32;;;;;;;11.95;9.98;;;0.80;99.90;;;;;;5109010;28;20047;-85
2024/01/10 12:18:58;;;;;;;14.70;11.52;;;0.70;99.90;;;;;;5062674;28;20070;-83
2024/01/10 12:21:23;;;;;;;17.58;12.75;;;0.80;99.90;;;;;;5062109;28;20032;-82
2024/01/10 12:23:51;;;;;;;12.32;10.32;;;0.80;99.90;;;;;;5047514;28;20048;-84
2024/01/10 12:26:18;;;;;;;14.32;12.20;;;0.80;99.90;;;;;;5048611;28;20473;-83
2024/01/10 12:28:57;;;;;;;18.55;12.35;;;0.80;99.90;;;;;;5042883;28;20028;-83
2024/01/10 12:31:24;;;;;;;14.13;12.02;;;0.70;99.90;;;;;;5030162;28;20400;-83
2024/01/10 12:33:49;;;;;;;15.90;12.68;;;0.80;99.90;;;;;;5061224;28;20032;-83
2024/01/10 12:36:17;;;;;;;16.67;12.07;;;0.80;99.90;;;;;;5083838;28;20040;-83
2024/01/10 12:38:44;;;;;;;13.50;11.02;;;0.80;99.90;;;;;;5071663;28;20067;-83
2024/01/10 12:41:11;;;;;;;15.27;11.57;;;1.00;99.90;;;;;;5056407;28;20508;-83
2024/01/10 12:43:37;;;;;;;18.63;11.70;;;0.80;99.90;;;;;;5068675;28;20441;-83
2024/01/10 12:46:04;;;;;;;12.50;10.32;;;0.80;99.90;;;;;;5050920;28;20123;-84
2024/01/10 12:48:30;;;;;;;16.17;13.45;;;0.80;99.90;;;;;;5057970;28;20036;-83
2024/01/10 12:51:00;;;;;;;18.60;13.70;;;0.80;99.90;;;;;;5054771;28;20101;-84
2024/01/10 12:53:28;;;;;;;20.80;13.55;;;0.60;99.90;;;;;;5075066;28;20032;-83
2024/01/10 12:55:54;;;;;;;15.32;11.93;;;0.60;99.90;;;;;;5062365;28;20037;-84
2024/01/10 12:58:20;;;;;;;12.85;11.13;;;0.60;99.90;;;;;;5052270;28;20043;-84
2024/01/10 13:00:46;;;;;;;13.20;10.68;;;0.50;99.90;;;;;;5060378;28;20473;-85
2024/01/10 13:03:12;;;;;;;13.32;11.90;;;0.50;99.90;;;;;;5051356;28;20074;-84
2024/01/10 13:05:38;;;;;;;11.80;10.60;;;0.50;99.90;;;;;;5053673;28;20047;-83
2024/01/10 13:08:05;;;;;;;13.13;11.30;;;0.40;99.90;;;;;;5048394;28;20530;-83
2024/01/10 13:10:31;;;;;;;19.73;13.70;;;0.40;99.90;;;;;;5069722;28;20040;-85
2024/01/10 13:12:57;;;;;;;13.20;11.18;;;0.30;99.90;;;;;;5073052;28;20035;-83
2024/01/10 13:15:22;;;;;;;16.38;13.40;;;0.30;99.90;;;;;;5052822;28;20142;-84
2024/01/10 13:17:48;;;;;;;15.48;12.23;;;0.30;99.90;;;;;;5091670;28;20047;-84
2024/01/10 13:20:13;;;;;;;18.45;13.57;;;0.40;99.90;;;;;;5072918;28;20488;-84
2024/01/10 13:22:39;;;;;;;17.52;13.07;;;0.40;99.90;;;;;;5077491;28;20043;-84
2024/01/10 13:25:05;;;;;;;16.73;12.45;;;0.30;99.90;;;;;;5068153;28;20044;-84
2024/01/10 13:27:31;;;;;;;14.05;11.80;;;0.30;99.90;;;;;;5072044;28;20586;-83
2024/01/10 13:29:57;;;;;;;15.30;11.98;;;0.40;99.90;;;;;;5058991;28;20040;-84
2024/01/10 13:32:23;;;;;;;14.93;12.23;;;0.40;99.90;;;;;;5078913;28;20047;-84
2024/01/10 13:34:48;;;;;;;13.52;10.93;;;0.40;99.90;;;;;;5072274;28;20035;-83
2024/01/10 13:37:14;;;;;;;20.38;14.10;;;0.30;99.90;;;;;;5065610;28;20044;-83
2024/01/10 13:39:43;;;;;;;12.27;10.32;;;0.30;99.90;;;;;;5057873;28;20040;-83
2024/01/10 13:42:11;;;;;;;18.58;12.32;;;0.30;99.90;;;;;;5057246;28;20055;-85
2024/01/10 13:44:37;;;;;;;14.25;12.80;;;0.30;99.90;;;;;;5057686;28;20089;-84
2024/01/10 13:47:03;;;;;;;14.57;12.90;;;0.40;99.90;;;;;;5054033;28;20478;-84
2024/01/10 13:49:29;;;;;;;13.93;12.52;;;0.40;99.90;;;;;;5057924;28;20043;-84
2024/01/10 13:51:54;;;;;;;18.35;11.95;;;0.40;99.90;;;;;;5080338;28;20417;-85
2024/01/10 13:54:21;;;;;;;16.30;12.10;;;0.40;99.90;;;;;;5055630;28;20028;-84
2024/01/10 13:56:47;;;;;;;15.95;13.05;;;0.40;99.90;;;;;;5069999;28;20040;-85
2024/01/10 13:59:13;;;;;;;16.20;13.55;;;0.30;99.90;;;;;;5049251;28;20059;-85
2024/01/10 14:01:39;;;;;;;12.15;11.10;;;0.30;99.90;;;;;;5077279;28;20127;-85
2024/01/10 14:04:05;;;;;;;12.27;10.95;;;0.30;99.90;;;;;;5073929;28;20040;-85
2024/01/10 14:06:31;;;;;;;15.10;11.68;;;0.20;99.90;;;;;;5056376;28;20040;-84
2024/01/10 14:08:57;;;;;;;19.02;12.27;;;0.20;99.90;;;;;;5088297;28;20043;-84
2024/01/10 14:11:24;;;;;;;18.88;14.55;;;0.20;99.90;;;;;;5074180;28;20044;-84